Terminal Aerodrome Forecast
Issued by NWS Green Bay, WI

Home | Current Version | Previous Version | Text Only | Print | Product List | Glossary On
Versions: 1 2 3 4 5 6 7 8 9 10 11 12 13 14 15 16 17 18 19 20 21 22 23 24 25 26 27 28 29 30 31 32 33
000
FTUS43 KGRB 282300
TAFGRB
TAF
KGRB 282321Z 2900/2924 19007KT P6SM SCT250
     FM290800 19011G17KT P6SM BKN150 WS017/21040KT
     FM291200 19016G26KT P6SM SCT040 BKN080 WS020/22055KT
     FM291400 19020G33KT 4SM -SN BKN040
      TEMPO 2914/2917 1 1/2SM -RASNPL OVC015
     FM291800 21022G34KT P6SM -RA BKN025
     FM292300 27017G31KT P6SM BKN050=

USA.gov is the U.S. government's official web portal to all federal, state and local government web resources and services.